createdAt,value
2018-07-21T00:00:23.654Z,60.20
2018-07-21T00:01:23.681Z,61.25
2018-07-21T00:02:23.739Z,60.49
2018-07-21T00:03:23.739Z,60.49
2018-07-21T00:04:23.785Z,61.25
2018-07-21T00:05:23.800Z,60.87
2018-07-21T00:06:23.824Z,61.19
2018-07-21T00:07:23.865Z,61.25
2018-07-21T00:08:23.899Z,60.77
2018-07-21T00:09:23.938Z,61.25
2018-07-21T00:10:24.560Z,60.39
2018-07-21T00:11:23.975Z,60.90
2018-07-21T00:12:24.084Z,60.39
2018-07-21T00:13:24.044Z,60.23
2018-07-21T00:14:24.069Z,60.10
2018-07-21T00:15:24.120Z,61.07
2018-07-21T00:16:24.136Z,60.97
2018-07-21T00:17:24.159Z,60.87
2018-07-21T00:18:24.180Z,60.97
2018-07-21T00:19:24.229Z,60.97
2018-07-21T00:20:24.254Z,61.07
2018-07-21T00:21:24.359Z,61.25
2018-07-21T00:22:24.306Z,61.25
2018-07-21T00:23:24.335Z,60.97
2018-07-21T00:24:24.367Z,61.16
2018-07-21T00:25:24.398Z,61.65
2018-07-21T00:26:24.437Z,61.07
2018-07-21T00:27:24.452Z,61.55
2018-07-21T00:28:24.472Z,60.77
2018-07-21T00:29:24.501Z,60.97
2018-07-21T00:30:24.659Z,60.87
2018-07-21T00:31:24.564Z,62.06
2018-07-21T00:32:24.662Z,62.15
2018-07-21T00:33:24.627Z,61.96
2018-07-21T00:34:24.650Z,62.41
2018-07-21T00:35:24.687Z,62.60
2018-07-21T00:36:24.725Z,62.60
2018-07-21T00:37:24.735Z,62.41
2018-07-21T00:38:24.774Z,62.22
2018-07-21T00:39:24.811Z,62.60
2018-07-21T00:40:24.836Z,62.12
2018-07-21T00:41:24.848Z,62.32
2018-07-21T00:42:24.900Z,62.87
2018-07-21T00:43:24.921Z,62.87
2018-07-21T00:44:24.944Z,64.02
2018-07-21T00:45:24.986Z,63.54
2018-07-21T00:46:25.011Z,64.12
2018-07-21T00:47:25.037Z,64.59
2018-07-21T00:48:25.057Z,64.02
2018-07-21T00:49:25.107Z,64.40
2018-07-21T00:50:25.114Z,63.82
2018-07-21T00:51:25.143Z,63.82
2018-07-21T00:52:25.173Z,64.40
2018-07-21T00:53:25.205Z,63.34
2018-07-21T00:54:25.232Z,63.54
2018-07-21T00:55:25.263Z,64.69
2018-07-21T00:56:25.291Z,64.12
2018-07-21T00:57:25.334Z,64.69
2018-07-21T00:58:25.349Z,63.92
2018-07-21T00:59:25.389Z,63.82
2018-07-21T01:00:25.412Z,63.34
2018-07-21T01:01:25.453Z,64.40
2018-07-21T01:02:25.471Z,64.40
2018-07-21T01:03:25.495Z,64.12
2018-07-21T01:04:25.530Z,65.46
2018-07-21T01:05:25.549Z,64.31
2018-07-21T01:06:25.600Z,65.08
2018-07-21T01:07:25.621Z,64.40
2018-07-21T01:08:25.639Z,64.79
2018-07-21T01:09:25.668Z,65.17
2018-07-21T01:10:25.705Z,65.46
2018-07-21T01:11:25.742Z,65.27
2018-07-21T01:12:25.767Z,65.17
2018-07-21T01:13:25.800Z,65.17
2018-07-21T01:14:25.818Z,64.21
2018-07-21T01:15:25.864Z,65.08
2018-07-21T01:16:25.878Z,65.94
2018-07-21T01:17:25.900Z,65.08
2018-07-21T01:18:25.935Z,65.14
2018-07-21T01:19:25.960Z,65.46
2018-07-21T01:20:25.988Z,65.33
2018-07-21T01:21:26.100Z,65.53
2018-07-21T01:22:26.045Z,64.95
2018-07-21T01:23:26.129Z,65.63
2018-07-21T01:24:26.108Z,65.24
2018-07-21T01:25:26.140Z,65.24
2018-07-21T01:26:26.169Z,65.14
2018-07-21T01:27:26.255Z,65.08
2018-07-21T01:28:26.216Z,65.05
2018-07-21T01:29:26.266Z,65.17
2018-07-21T01:30:26.280Z,64.50
2018-07-21T01:31:26.311Z,63.92
2018-07-21T01:32:27.082Z,64.21
2018-07-21T01:33:26.374Z,64.69
2018-07-21T01:34:26.415Z,64.59
2018-07-21T01:35:26.425Z,64.50
2018-07-21T01:36:26.452Z,63.73
2018-07-21T01:37:26.487Z,64.59
2018-07-21T01:38:26.517Z,65.17
2018-07-21T01:39:26.549Z,65.17
2018-07-21T01:40:26.584Z,64.79
2018-07-21T01:41:26.625Z,64.59
2018-07-21T01:42:26.625Z,64.79
2018-07-21T01:43:26.738Z,65.37
2018-07-21T01:44:26.690Z,64.89
2018-07-21T01:45:26.720Z,64.40
2018-07-21T01:46:26.748Z,64.89
2018-07-21T01:47:26.773Z,64.89
2018-07-21T01:48:26.799Z,64.31
2018-07-21T01:49:26.829Z,64.86
2018-07-21T01:50:26.861Z,65.24
2018-07-21T01:51:26.887Z,66.30
2018-07-21T01:52:26.918Z,65.94
2018-07-21T01:53:26.960Z,65.43
2018-07-21T01:54:26.987Z,65.53
2018-07-21T01:55:27.004Z,65.53
2018-07-21T01:56:27.042Z,65.85
2018-07-21T01:57:27.063Z,66.33
2018-07-21T01:58:27.105Z,65.94
2018-07-21T01:59:27.135Z,66.49
2018-07-21T02:00:27.155Z,65.91
2018-07-21T02:01:27.179Z,66.20
2018-07-21T02:02:27.219Z,66.42
2018-07-21T02:03:27.240Z,66.33
2018-07-21T02:04:27.269Z,66.52
2018-07-21T02:05:27.298Z,66.33
2018-07-21T02:06:27.323Z,66.42
2018-07-21T02:07:27.357Z,67.10
2018-07-21T02:08:27.384Z,66.52
2018-07-21T02:09:27.409Z,66.42
2018-07-21T02:10:27.439Z,66.71
2018-07-21T02:11:27.469Z,66.91
2018-07-21T02:12:27.498Z,67.16
2018-07-21T02:13:27.555Z,67.16
2018-07-21T02:14:27.562Z,67.55
2018-07-21T02:15:27.605Z,67.26
2018-07-21T02:16:27.624Z,67.83
2018-07-21T02:17:27.649Z,67.93
2018-07-21T02:18:27.670Z,67.99
2018-07-21T02:19:27.698Z,67.93
2018-07-21T02:20:27.730Z,67.93
2018-07-21T02:21:27.762Z,68.48
2018-07-21T02:22:27.837Z,68.70
2018-07-21T02:23:28.597Z,67.93
2018-07-21T02:24:27.894Z,67.74
2018-07-21T02:25:27.876Z,67.74
2018-07-21T02:26:27.900Z,67.16
2018-07-21T02:27:27.942Z,67.26
2018-07-21T02:28:27.967Z,67.26
2018-07-21T02:29:27.998Z,67.45
2018-07-21T02:30:28.029Z,67.83
2018-07-21T02:31:28.062Z,68.29
2018-07-21T02:32:28.600Z,68.51
2018-07-21T02:33:28.112Z,68.22
2018-07-21T02:34:28.137Z,67.93
2018-07-21T02:35:28.201Z,68.48
2018-07-21T02:36:28.199Z,67.90
2018-07-21T02:37:28.223Z,68.41
2018-07-21T02:38:28.251Z,68.57
2018-07-21T02:39:28.296Z,68.57
2018-07-21T02:40:28.308Z,67.80
2018-07-21T02:41:28.340Z,68.38
2018-07-21T02:42:28.370Z,68.41
2018-07-21T02:43:28.434Z,66.65
2018-07-21T02:44:28.446Z,67.99
2018-07-21T02:45:28.553Z,67.83
2018-07-21T02:46:28.488Z,67.65
2018-07-21T02:47:28.519Z,67.83
2018-07-21T02:48:28.539Z,68.41
2018-07-21T02:49:28.606Z,68.86
2018-07-21T02:50:28.602Z,68.99
2018-07-21T02:51:28.630Z,69.18
2018-07-21T02:52:29.640Z,68.70
2018-07-21T02:53:28.728Z,68.57
2018-07-21T02:54:28.790Z,68.76
2018-07-21T02:55:28.778Z,67.80
2018-07-21T02:56:28.783Z,67.83
2018-07-21T02:57:28.797Z,68.51
2018-07-21T02:58:28.848Z,68.38
2018-07-21T02:59:28.862Z,68.38
2018-07-21T03:00:28.882Z,68.76
2018-07-21T03:01:28.922Z,68.86
2018-07-21T03:02:28.939Z,68.96
2018-07-21T03:03:28.981Z,69.44
2018-07-21T03:04:29.013Z,69.06
2018-07-21T03:05:29.098Z,68.86
2018-07-21T03:06:29.063Z,68.38
2018-07-21T03:07:29.089Z,68.67
2018-07-21T03:08:29.143Z,68.86
2018-07-21T03:09:29.143Z,68.86
2018-07-21T03:10:29.173Z,68.96
2018-07-21T03:11:29.204Z,68.96
2018-07-21T03:12:29.237Z,68.67
2018-07-21T03:13:29.266Z,68.76
2018-07-21T03:14:29.287Z,68.96
2018-07-21T03:15:29.313Z,68.57
2018-07-21T03:16:29.340Z,68.96
2018-07-21T03:17:29.369Z,68.86
2018-07-21T03:18:29.401Z,68.86
2018-07-21T03:19:29.439Z,69.15
2018-07-21T03:20:29.475Z,69.53
2018-07-21T03:21:29.484Z,69.82
2018-07-21T03:22:29.526Z,69.24
2018-07-21T03:23:29.558Z,69.24
2018-07-21T03:24:29.579Z,68.86
2018-07-21T03:25:29.604Z,68.86
2018-07-21T03:26:29.647Z,68.96
2018-07-21T03:27:29.666Z,69.06
2018-07-21T03:28:29.689Z,69.24
2018-07-21T03:29:29.716Z,70.11
2018-07-21T03:30:29.744Z,69.73
2018-07-21T03:31:29.784Z,69.73
2018-07-21T03:32:29.802Z,69.50
2018-07-21T03:33:29.832Z,70.21
2018-07-21T03:34:29.866Z,69.44
2018-07-21T03:35:29.887Z,69.63
2018-07-21T03:36:29.929Z,69.44
2018-07-21T03:37:29.953Z,69.24
2018-07-21T03:38:29.980Z,69.73
2018-07-21T03:39:30.026Z,69.53
2018-07-21T03:40:30.080Z,68.67
2018-07-21T03:41:30.076Z,68.86
2018-07-21T03:42:30.091Z,68.96
2018-07-21T03:43:30.123Z,68.86
2018-07-21T03:44:30.176Z,69.82
2018-07-21T03:45:30.189Z,69.82
2018-07-21T03:46:30.218Z,69.06
2018-07-21T03:47:30.250Z,69.06
2018-07-21T03:48:30.263Z,68.67
2018-07-21T03:49:30.301Z,68.76
2018-07-21T03:50:30.329Z,69.15
2018-07-21T03:51:30.356Z,68.86
2018-07-21T03:52:30.397Z,68.96
2018-07-21T03:53:30.415Z,69.82
2018-07-21T03:54:30.452Z,69.24
2018-07-21T03:55:30.480Z,69.53
2018-07-21T03:56:30.506Z,69.06
2018-07-21T03:57:30.529Z,69.44
2018-07-21T03:58:30.548Z,69.06
2018-07-21T03:59:30.582Z,68.67
2018-07-21T04:00:30.629Z,69.15
2018-07-21T04:01:30.645Z,68.86
2018-07-21T04:02:30.668Z,68.96
2018-07-21T04:03:30.707Z,68.38
2018-07-21T04:04:30.723Z,68.96
2018-07-21T04:05:30.754Z,68.29
2018-07-21T04:06:30.781Z,68.32
2018-07-21T04:07:30.812Z,68.41
2018-07-21T04:08:30.840Z,68.51
2018-07-21T04:09:30.895Z,68.29
2018-07-21T04:10:30.904Z,68.51
2018-07-21T04:11:30.938Z,68.80
2018-07-21T04:12:30.952Z,68.60
2018-07-21T04:13:30.978Z,68.80
2018-07-21T04:14:31.008Z,68.70
2018-07-21T04:15:31.034Z,68.80
2018-07-21T04:16:31.128Z,68.80
2018-07-21T04:17:31.094Z,68.48
2018-07-21T04:18:31.149Z,68.99
2018-07-21T04:19:31.147Z,68.90
2018-07-21T04:20:31.177Z,68.70
2018-07-21T04:21:31.210Z,68.70
2018-07-21T04:22:31.243Z,69.38
2018-07-21T04:23:31.265Z,69.85
2018-07-21T04:24:31.302Z,69.47
2018-07-21T04:25:31.327Z,68.90
2018-07-21T04:26:31.356Z,69.67
2018-07-21T04:27:31.383Z,68.90
2018-07-21T04:28:31.411Z,68.41
2018-07-21T04:29:31.436Z,68.32
2018-07-21T04:30:31.471Z,68.32
2018-07-21T04:31:31.497Z,67.83
2018-07-21T04:32:31.530Z,68.51
2018-07-21T04:33:31.566Z,68.41
2018-07-21T04:34:31.589Z,68.32
2018-07-21T04:35:31.614Z,67.93
2018-07-21T04:36:31.637Z,67.83
2018-07-21T04:37:31.676Z,67.93
2018-07-21T04:38:31.699Z,68.80
2018-07-21T04:39:31.722Z,68.60
2018-07-21T04:40:31.757Z,69.18
2018-07-21T04:41:31.816Z,68.99
2018-07-21T04:42:31.816Z,68.70
2018-07-21T04:43:31.843Z,68.51
2018-07-21T04:44:31.870Z,67.74
2018-07-21T04:45:31.935Z,69.18
2018-07-21T04:46:31.944Z,69.85
2018-07-21T04:47:31.961Z,68.84
2018-07-21T04:48:31.991Z,69.51
2018-07-21T04:49:32.010Z,69.57
2018-07-21T04:50:32.044Z,68.80
2018-07-21T04:51:32.081Z,68.54
2018-07-21T04:52:32.101Z,68.93
2018-07-21T04:53:32.125Z,69.12
2018-07-21T04:54:32.182Z,68.64
2018-07-21T04:55:32.185Z,69.12
2018-07-21T04:56:32.317Z,68.35
2018-07-21T04:57:32.267Z,68.64
2018-07-21T04:58:32.273Z,67.49
2018-07-21T04:59:32.311Z,67.49
2018-07-21T05:00:32.347Z,67.68
2018-07-21T05:01:32.357Z,66.62
2018-07-21T05:02:32.394Z,66.62
2018-07-21T05:03:32.432Z,66.71
2018-07-21T05:04:32.446Z,67.49
2018-07-21T05:05:32.481Z,66.81
2018-07-21T05:06:32.503Z,67.39
2018-07-21T05:07:32.614Z,66.81
2018-07-21T05:08:32.558Z,67.42
2018-07-21T05:09:32.588Z,67.39
2018-07-21T05:10:32.622Z,67.19
2018-07-21T05:11:32.651Z,66.91
2018-07-21T05:12:32.677Z,66.17
2018-07-21T05:13:32.715Z,65.85
2018-07-21T05:14:32.733Z,66.24
2018-07-21T05:15:32.763Z,66.62
2018-07-21T05:16:32.799Z,65.75
2018-07-21T05:17:32.822Z,65.88
2018-07-21T05:18:32.850Z,65.88
2018-07-21T05:19:32.886Z,66.65
2018-07-21T05:20:32.903Z,65.56
2018-07-21T05:21:32.941Z,66.04
2018-07-21T05:22:32.965Z,64.92
2018-07-21T05:23:32.991Z,66.07
2018-07-21T05:24:33.021Z,66.27
2018-07-21T05:25:33.068Z,66.46
2018-07-21T05:26:33.079Z,65.59
2018-07-21T05:27:33.110Z,65.30
2018-07-21T05:28:33.134Z,66.36
2018-07-21T05:29:33.164Z,65.98
2018-07-21T05:30:33.205Z,66.36
2018-07-21T05:31:33.226Z,65.88
2018-07-21T05:32:33.262Z,65.50
2018-07-21T05:33:33.322Z,64.82
2018-07-21T05:34:33.308Z,65.11
2018-07-21T05:35:33.342Z,64.92
2018-07-21T05:36:33.497Z,65.11
2018-07-21T05:37:33.420Z,65.20
2018-07-21T05:38:33.430Z,65.01
2018-07-21T05:39:33.465Z,65.11
2018-07-21T05:40:33.508Z,65.05
2018-07-21T05:41:33.510Z,65.05
2018-07-21T05:42:33.541Z,65.20
2018-07-21T05:43:33.573Z,65.30
2018-07-21T05:44:33.609Z,65.30
2018-07-21T05:45:33.637Z,64.25
2018-07-21T05:46:33.670Z,65.05
2018-07-21T05:47:33.695Z,64.66
2018-07-21T05:48:33.711Z,64.95
2018-07-21T05:49:33.741Z,64.66
2018-07-21T05:50:33.771Z,65.24
2018-07-21T05:51:33.809Z,64.47
2018-07-21T05:52:33.840Z,64.37
2018-07-21T05:53:33.860Z,64.56
2018-07-21T05:54:33.927Z,64.66
2018-07-21T05:55:33.931Z,65.05
2018-07-21T05:56:33.960Z,65.53
2018-07-21T05:57:33.976Z,64.47
2018-07-21T05:58:34.019Z,64.47
2018-07-21T05:59:34.040Z,65.24
2018-07-21T06:00:34.074Z,65.27
2018-07-21T06:01:34.104Z,63.12
2018-07-21T06:02:34.123Z,64.31
2018-07-21T06:03:34.169Z,63.41
2018-07-21T06:04:34.178Z,63.63
2018-07-21T06:05:34.230Z,63.82
2018-07-21T06:06:34.241Z,64.31
2018-07-21T06:07:35.191Z,63.15
2018-07-21T06:08:34.349Z,62.86
2018-07-21T06:09:34.336Z,63.92
2018-07-21T06:10:34.358Z,62.57
2018-07-21T06:11:34.388Z,61.80
2018-07-21T06:12:34.413Z,61.61
2018-07-21T06:13:34.443Z,61.71
2018-07-21T06:14:34.469Z,61.03
2018-07-21T06:15:34.513Z,60.64
2018-07-21T06:16:34.528Z,61.22
2018-07-21T06:17:34.558Z,61.61
2018-07-21T06:18:34.625Z,61.13
2018-07-21T06:19:34.647Z,62.48
2018-07-21T06:20:34.650Z,60.83
2018-07-21T06:21:34.674Z,61.71
2018-07-21T06:22:34.705Z,61.93
2018-07-21T06:23:34.732Z,60.55
2018-07-21T06:24:34.766Z,60.86
2018-07-21T06:25:34.825Z,61.44
2018-07-21T06:26:34.822Z,61.51
2018-07-21T06:27:34.849Z,60.55
2018-07-21T06:28:34.896Z,60.64
2018-07-21T06:29:34.911Z,60.93
2018-07-21T06:30:34.947Z,60.83
2018-07-21T06:31:35.034Z,60.55
2018-07-21T06:32:34.999Z,61.16
2018-07-21T06:33:35.047Z,60.28
2018-07-21T06:34:35.076Z,60.58
2018-07-21T06:35:35.144Z,60.77
2018-07-21T06:36:35.120Z,60.48
2018-07-21T06:37:35.149Z,59.71
2018-07-21T06:38:35.187Z,60.00
2018-07-21T06:39:35.220Z,59.80
2018-07-21T06:40:35.229Z,59.06
2018-07-21T06:41:35.261Z,59.32
2018-07-21T06:42:35.293Z,58.84
2018-07-21T06:43:35.327Z,59.03
2018-07-21T06:44:35.346Z,59.13
2018-07-21T06:45:35.373Z,58.45
2018-07-21T06:46:35.408Z,59.03
2018-07-21T06:47:35.444Z,59.03
2018-07-21T06:48:35.461Z,58.45
2018-07-21T06:49:35.543Z,59.13
2018-07-21T06:50:35.529Z,58.94
2018-07-21T06:51:35.549Z,58.94
2018-07-21T06:52:35.585Z,58.68
2018-07-21T06:53:35.604Z,59.25
2018-07-21T06:54:35.701Z,59.16
2018-07-21T06:55:35.672Z,59.06
2018-07-21T06:56:35.693Z,59.06
2018-07-21T06:57:35.729Z,59.35
2018-07-21T06:58:35.755Z,59.16
2018-07-21T06:59:35.790Z,58.48
2018-07-21T07:00:35.821Z,58.29
2018-07-21T07:01:35.854Z,58.58
2018-07-21T07:02:35.885Z,59.06
2018-07-21T07:03:35.905Z,58.68
2018-07-21T07:04:35.939Z,58.97
2018-07-21T07:05:35.961Z,59.06
2018-07-21T07:06:35.991Z,59.09
2018-07-21T07:07:36.022Z,59.06
2018-07-21T07:08:36.076Z,59.38
2018-07-21T07:09:36.083Z,58.51
2018-07-21T07:10:36.113Z,58.03
2018-07-21T07:11:36.145Z,57.35
2018-07-21T07:12:36.162Z,57.52
2018-07-21T07:13:36.198Z,57.62
2018-07-21T07:14:36.221Z,58.12
2018-07-21T07:15:36.256Z,59.38
2018-07-21T07:16:36.300Z,57.74
2018-07-21T07:17:36.322Z,57.64
2018-07-21T07:18:36.408Z,57.54
2018-07-21T07:19:36.375Z,57.45
2018-07-21T07:20:36.415Z,56.10
2018-07-21T07:21:36.431Z,57.26
2018-07-21T07:22:36.467Z,57.26
2018-07-21T07:23:36.494Z,56.77
2018-07-21T07:24:36.519Z,56.80
2018-07-21T07:25:36.562Z,56.61
2018-07-21T07:26:36.584Z,56.22
2018-07-21T07:27:36.619Z,56.22
2018-07-21T07:28:36.665Z,55.74
2018-07-21T07:29:36.664Z,56.10
2018-07-21T07:30:36.689Z,55.90
2018-07-21T07:31:36.736Z,55.81
2018-07-21T07:32:36.747Z,56.29
2018-07-21T07:33:36.793Z,55.71
2018-07-21T07:34:36.807Z,55.93
2018-07-21T07:35:36.838Z,56.22
2018-07-21T07:36:36.876Z,55.93
2018-07-21T07:37:36.904Z,56.13
2018-07-21T07:38:36.937Z,55.83
2018-07-21T07:39:36.998Z,56.03
2018-07-21T07:40:36.981Z,55.83
2018-07-21T07:41:37.025Z,56.03
2018-07-21T07:42:37.045Z,56.22
2018-07-21T07:43:37.078Z,56.25
2018-07-21T07:44:37.103Z,54.97
2018-07-21T07:45:37.160Z,55.16
2018-07-21T07:46:37.181Z,54.58
2018-07-21T07:47:37.195Z,55.16
2018-07-21T07:48:37.235Z,55.16
2018-07-21T07:49:37.251Z,55.35
2018-07-21T07:50:37.292Z,54.71
2018-07-21T07:51:37.317Z,55.47
2018-07-21T07:52:37.349Z,55.38
2018-07-21T07:53:37.374Z,55.29
2018-07-21T07:54:37.422Z,55.87
2018-07-21T07:55:37.432Z,56.15
2018-07-21T07:56:37.464Z,55.77
2018-07-21T07:57:37.496Z,55.60
2018-07-21T07:58:37.521Z,55.41
2018-07-21T07:59:37.553Z,55.41
2018-07-21T08:00:37.579Z,55.51
2018-07-21T08:01:37.613Z,53.28
2018-07-21T08:02:37.648Z,50.86
2018-07-21T08:03:37.664Z,51.73
2018-07-21T08:04:37.767Z,53.41
2018-07-21T08:05:37.724Z,53.11
2018-07-21T08:06:37.762Z,53.31
2018-07-21T08:07:37.792Z,52.14
2018-07-21T08:08:37.817Z,51.56
2018-07-21T08:09:37.845Z,51.95
2018-07-21T08:10:37.872Z,50.28
2018-07-21T08:11:37.905Z,51.08
2018-07-21T08:12:37.932Z,52.05
2018-07-21T08:13:37.961Z,52.14
2018-07-21T08:14:37.994Z,52.53
2018-07-21T08:15:38.023Z,50.70
2018-07-21T08:16:38.054Z,52.05
2018-07-21T08:17:38.079Z,52.73
2018-07-21T08:18:38.229Z,53.23
2018-07-21T08:19:38.140Z,52.66
2018-07-21T08:20:38.259Z,51.78
2018-07-21T08:21:38.200Z,51.01
2018-07-21T08:22:38.229Z,51.01
2018-07-21T08:23:38.257Z,50.82
2018-07-21T08:24:38.295Z,49.95
2018-07-21T08:25:38.333Z,49.15
2018-07-21T08:26:38.353Z,48.66
2018-07-21T08:27:38.388Z,49.46
2018-07-21T08:28:38.414Z,50.62
2018-07-21T08:29:38.446Z,50.24
2018-07-21T08:30:38.474Z,49.85
2018-07-21T08:31:38.513Z,48.88
2018-07-21T08:32:38.527Z,49.17
2018-07-21T08:33:38.558Z,47.99
2018-07-21T08:34:38.639Z,48.88
2018-07-21T08:35:38.662Z,49.56
2018-07-21T08:36:38.651Z,50.24
2018-07-21T08:37:38.687Z,49.75
2018-07-21T08:38:38.713Z,49.46
2018-07-21T08:39:38.737Z,49.77
2018-07-21T08:40:38.777Z,49.00
2018-07-21T08:41:38.815Z,47.94
2018-07-21T08:42:38.842Z,49.00
2018-07-21T08:43:38.869Z,49.10
2018-07-21T08:44:38.891Z,49.10
2018-07-21T08:45:38.921Z,49.77
2018-07-21T08:46:38.953Z,48.71
2018-07-21T08:47:38.984Z,49.10
2018-07-21T08:48:39.057Z,49.00
2018-07-21T08:49:39.049Z,49.32
2018-07-21T08:50:39.088Z,50.09
2018-07-21T08:51:39.099Z,49.99
2018-07-21T08:52:39.131Z,50.31
2018-07-21T08:53:39.187Z,49.34
2018-07-21T08:54:39.190Z,48.85
2018-07-21T08:55:39.371Z,48.27
2018-07-21T08:56:39.257Z,47.98
2018-07-21T08:57:39.276Z,48.66
2018-07-21T08:58:39.339Z,46.43
2018-07-21T08:59:39.335Z,46.43
2018-07-21T09:00:39.377Z,47.02
2018-07-21T09:01:39.403Z,46.53
2018-07-21T09:02:39.435Z,47.03
2018-07-21T09:03:39.462Z,46.45
2018-07-21T09:04:39.498Z,47.23
2018-07-21T09:05:39.543Z,47.23
2018-07-21T09:06:39.548Z,45.78
2018-07-21T09:07:39.584Z,46.36
2018-07-21T09:08:39.604Z,46.36
2018-07-21T09:09:39.641Z,46.75
2018-07-21T09:10:39.667Z,47.23
2018-07-21T09:11:39.738Z,47.06
2018-07-21T09:12:39.737Z,46.96
2018-07-21T09:13:39.765Z,45.31
2018-07-21T09:14:39.790Z,45.99
2018-07-21T09:15:39.824Z,46.67
2018-07-21T09:16:39.855Z,45.34
2018-07-21T09:17:39.919Z,44.75
2018-07-21T09:18:39.938Z,44.75
2018-07-21T09:19:39.939Z,45.72
2018-07-21T09:20:39.979Z,44.95
2018-07-21T09:21:40.004Z,45.82
2018-07-21T09:22:40.042Z,43.78
2018-07-21T09:23:40.059Z,45.45
2018-07-21T09:24:40.092Z,43.88
2018-07-21T09:25:40.141Z,43.68
2018-07-21T09:26:40.160Z,44.37
2018-07-21T09:27:40.191Z,45.34
2018-07-21T09:28:40.212Z,44.58
2018-07-21T09:29:40.250Z,45.17
2018-07-21T09:30:40.280Z,45.57
2018-07-21T09:31:40.309Z,45.48
2018-07-21T09:32:40.337Z,45.77
2018-07-21T09:33:40.373Z,44.51
2018-07-21T09:34:40.395Z,43.36
2018-07-21T09:35:40.428Z,43.16
2018-07-21T09:36:40.473Z,43.55
2018-07-21T09:37:40.489Z,42.78
2018-07-21T09:38:40.657Z,41.24
2018-07-21T09:39:40.549Z,40.93
2018-07-21T09:40:40.593Z,41.05
2018-07-21T09:41:40.613Z,42.80
2018-07-21T09:42:40.647Z,42.02
2018-07-21T09:43:40.668Z,42.04
2018-07-21T09:44:40.719Z,41.94
2018-07-21T09:45:40.727Z,41.36
2018-07-21T09:46:40.767Z,40.97
2018-07-21T09:47:40.795Z,40.58
2018-07-21T09:48:40.834Z,40.78
2018-07-21T09:49:40.912Z,40.29
2018-07-21T09:50:40.892Z,41.06
2018-07-21T09:51:40.927Z,40.68
2018-07-21T09:52:40.946Z,40.01
2018-07-21T09:53:40.997Z,40.11
2018-07-21T09:54:41.013Z,39.72
2018-07-21T09:55:41.066Z,39.34
2018-07-21T09:56:41.084Z,40.80
2018-07-21T09:57:41.113Z,40.62
2018-07-21T09:58:41.133Z,40.23
2018-07-21T09:59:41.164Z,40.13
2018-07-21T10:00:41.197Z,39.96
2018-07-21T10:01:41.289Z,38.89
2018-07-21T10:02:41.250Z,38.10
2018-07-21T10:03:41.286Z,38.20
2018-07-21T10:04:41.315Z,37.71
2018-07-21T10:05:41.344Z,37.43
2018-07-21T10:06:41.384Z,37.43
2018-07-21T10:07:41.402Z,37.43
2018-07-21T10:08:41.446Z,37.35
2018-07-21T10:09:41.467Z,37.45
2018-07-21T10:10:41.510Z,36.57
2018-07-21T10:11:41.534Z,37.45
2018-07-21T10:12:41.566Z,36.96
2018-07-21T10:13:41.598Z,37.27
2018-07-21T10:14:41.644Z,36.68
2018-07-21T10:15:41.673Z,37.63
2018-07-21T10:16:41.697Z,37.73
2018-07-21T10:17:41.718Z,37.15
2018-07-21T10:18:41.751Z,37.15
2018-07-21T10:19:41.798Z,36.37
2018-07-21T10:20:41.813Z,36.65
2018-07-21T10:21:41.855Z,35.96
2018-07-21T10:22:41.872Z,36.84
2018-07-21T10:23:41.907Z,36.24
2018-07-21T10:24:41.937Z,36.22
2018-07-21T10:25:41.967Z,36.22
2018-07-21T10:26:41.996Z,36.30
2018-07-21T10:27:42.079Z,37.39
2018-07-21T10:28:42.069Z,36.92
2018-07-21T10:29:42.106Z,37.50
2018-07-21T10:30:42.146Z,35.94
2018-07-21T10:31:42.171Z,37.43
2018-07-21T10:32:42.196Z,35.38
2018-07-21T10:33:42.270Z,35.47
2018-07-21T10:34:42.265Z,37.04
2018-07-21T10:35:42.296Z,36.39
2018-07-21T10:36:42.322Z,35.04
2018-07-21T10:37:42.347Z,32.60
2018-07-21T10:38:42.432Z,35.84
2018-07-21T10:39:42.418Z,35.38
2018-07-21T10:40:42.466Z,34.89
2018-07-21T10:41:42.485Z,33.84
2018-07-21T10:42:42.503Z,32.58
2018-07-21T10:43:42.539Z,33.56
2018-07-21T10:44:42.580Z,31.99
2018-07-21T10:45:42.602Z,32.68
2018-07-21T10:46:42.629Z,33.17
2018-07-21T10:47:42.732Z,31.59
2018-07-21T10:48:42.695Z,32.07
2018-07-21T10:49:42.724Z,31.85
2018-07-21T10:50:42.775Z,33.62
2018-07-21T10:51:42.813Z,33.07
2018-07-21T10:52:42.827Z,32.03
2018-07-21T10:53:42.866Z,30.88
2018-07-21T10:54:42.887Z,29.90
2018-07-21T10:55:42.929Z,29.82
2018-07-21T10:56:43.074Z,30.70
2018-07-21T10:57:43.003Z,29.22
2018-07-21T10:58:43.025Z,28.55
2018-07-21T10:59:43.074Z,29.55
2018-07-21T11:00:43.082Z,28.68
2018-07-21T11:01:43.127Z,28.58
2018-07-21T11:02:43.151Z,29.38
2018-07-21T11:03:43.187Z,28.70
2018-07-21T11:04:43.224Z,27.84
2018-07-21T11:05:43.248Z,27.84
2018-07-21T11:06:43.277Z,28.41
2018-07-21T11:07:43.310Z,29.09
2018-07-21T11:08:43.348Z,29.59
2018-07-21T11:09:43.369Z,28.13
2018-07-21T11:10:43.402Z,28.22
2018-07-21T11:11:43.447Z,27.94
2018-07-21T11:12:43.480Z,27.44
2018-07-21T11:13:43.524Z,27.44
2018-07-21T11:14:43.535Z,27.62
2018-07-21T11:15:43.585Z,26.92
2018-07-21T11:16:43.614Z,27.70
2018-07-21T11:17:43.653Z,28.67
2018-07-21T11:18:43.680Z,29.57
2018-07-21T11:19:43.702Z,28.68
2018-07-21T11:20:43.748Z,28.95
2018-07-21T11:21:43.783Z,29.53
2018-07-21T11:22:43.799Z,30.02
2018-07-21T11:23:43.848Z,29.75
2018-07-21T11:24:43.875Z,30.12
2018-07-21T11:25:43.912Z,29.73
2018-07-21T11:26:43.932Z,30.70
2018-07-21T11:27:43.969Z,30.70
2018-07-21T11:28:44.010Z,31.55
2018-07-21T11:29:44.040Z,31.91
2018-07-21T11:30:44.071Z,32.39
2018-07-21T11:31:44.123Z,32.58
2018-07-21T11:32:44.153Z,32.65
2018-07-21T11:33:44.177Z,33.22
2018-07-21T11:34:44.286Z,33.69
2018-07-21T11:35:44.362Z,34.08
2018-07-21T11:36:44.281Z,35.02
2018-07-21T11:37:44.308Z,35.98
2018-07-21T11:38:44.332Z,36.96
2018-07-21T11:39:44.373Z,36.18
2018-07-21T11:40:44.412Z,36.65
2018-07-21T11:41:44.435Z,37.60
2018-07-21T11:42:44.485Z,37.99
2018-07-21T11:43:44.608Z,38.87
2018-07-21T11:44:44.534Z,39.24
2018-07-21T11:45:44.578Z,39.14
2018-07-21T11:46:44.608Z,37.58
2018-07-21T11:47:44.627Z,35.93
2018-07-21T11:48:44.682Z,38.75
2018-07-21T11:49:44.701Z,38.65
2018-07-21T11:50:44.761Z,38.85
2018-07-21T11:51:44.768Z,39.75
2018-07-21T11:52:44.805Z,40.11
2018-07-21T11:53:44.823Z,39.84
2018-07-21T11:54:44.855Z,39.53
2018-07-21T11:55:44.887Z,40.23
2018-07-21T11:56:44.924Z,40.62
2018-07-21T11:57:44.954Z,42.08
2018-07-21T11:58:44.989Z,41.50
2018-07-21T11:59:45.016Z,40.42
2018-07-21T12:00:45.084Z,39.94
2018-07-21T12:01:45.121Z,38.75
2018-07-21T12:02:45.107Z,39.24
2018-07-21T12:03:45.145Z,40.11
2018-07-21T12:04:45.186Z,40.60
2018-07-21T12:05:45.257Z,40.70
2018-07-21T12:06:45.237Z,40.48
2018-07-21T12:07:45.280Z,39.31
2018-07-21T12:08:45.303Z,40.68
2018-07-21T12:09:45.331Z,40.09
2018-07-21T12:10:45.374Z,37.97
2018-07-21T12:11:45.400Z,38.56
2018-07-21T12:12:45.437Z,40.31
2018-07-21T12:13:45.459Z,40.29
2018-07-21T12:14:45.495Z,39.69
2018-07-21T12:15:45.531Z,39.28
2018-07-21T12:16:45.558Z,40.08
2018-07-21T12:17:45.591Z,41.34
2018-07-21T12:18:45.632Z,41.22
2018-07-21T12:19:45.650Z,40.73
2018-07-21T12:20:45.685Z,41.61
2018-07-21T12:21:45.717Z,41.32
2018-07-21T12:22:45.749Z,40.93
2018-07-21T12:23:45.778Z,40.91
2018-07-21T12:24:45.813Z,41.88
2018-07-21T12:25:45.851Z,41.98
2018-07-21T12:26:45.884Z,42.36
2018-07-21T12:27:45.906Z,41.59
2018-07-21T12:28:45.946Z,41.39
2018-07-21T12:29:45.979Z,42.76
2018-07-21T12:30:46.046Z,42.66
2018-07-21T12:31:46.032Z,42.66
2018-07-21T12:32:46.066Z,42.18
2018-07-21T12:33:46.206Z,41.28
2018-07-21T12:34:46.128Z,42.54
2018-07-21T12:35:46.163Z,43.24
2018-07-21T12:36:46.212Z,42.85
2018-07-21T12:37:46.232Z,41.88
2018-07-21T12:38:46.254Z,42.66
2018-07-21T12:39:46.294Z,42.95
2018-07-21T12:40:46.315Z,42.36
2018-07-21T12:41:46.447Z,41.98
2018-07-21T12:42:46.379Z,42.36
2018-07-21T12:43:46.418Z,42.27
2018-07-21T12:44:46.474Z,43.24
2018-07-21T12:45:46.493Z,42.97
2018-07-21T12:46:46.508Z,43.16
2018-07-21T12:47:46.540Z,42.97
2018-07-21T12:48:46.575Z,42.87
2018-07-21T12:49:46.604Z,42.29
2018-07-21T12:50:47.333Z,42.27
2018-07-21T12:51:46.668Z,42.00
2018-07-21T12:52:46.710Z,41.78